• Join FlightAware (Why Join?)
  • Login
  • US Flag 
11:11PM EST


 

Airport Tracker/Info


-or-


 

Live Flight TrackerFlight Track Log ✈ SWA1086 ✈ 16-Apr-2013 ✈ KOKC - KMCI

Flight Track Log - Related Links

Times and Time Zones

All times are in EDT time to prevent confusion due to time zone crossing. See the SWA1086 flight status page for this flight to view local times or setup timezone preferences in your user account.

Time Position Orientation Groundspeed Altitude Reporting Facility
EDT Latitude Longitude Course Direction KTS MPH feet Rate Location/Type
11:03AM 35.4061 -97.5919 North 160 184 2,000  Level Fort Worth Center
11:03AM 35.4333 -97.5867 North 183 211 2,900 2,760 Climbing Fort Worth Center
11:06AM 35.6067 -97.5497 10° North 288 331 10,200 2,760 Climbing Kansas City Center
11:07AM 35.6958 -97.5500 360° North 309 356 12,600 2,220 Climbing Kansas City Center
11:08AM 35.8008 -97.5492 360° North 353 406 14,800 2,340 Climbing Kansas City Center
11:09AM 35.9422 -97.5278 North 413 475 17,500 2,880 Climbing Kansas City Center
11:10AM 36.0508 -97.4531 29° Northeast 441 507 20,800 2,940 Climbing Kansas City Center
11:11AM 36.1608 -97.3731 30° Northeast 444 511 23,600 2,520 Climbing Kansas City Center
11:12AM 36.2692 -97.2972 29° Northeast 444 511 26,100 2,160 Climbing Kansas City Center
11:13AM 36.3800 -97.2186 30° Northeast 450 518 28,100 1,740 Climbing Kansas City Center
11:14AM 36.4922 -97.1394 30° Northeast 458 527 29,800 1,500 Climbing Kansas City Center
11:15AM 36.6047 -97.0578 30° Northeast 463 533 31,300 1,500 Climbing Kansas City Center
11:16AM 36.7194 -96.9725 31° Northeast 468 539 33,000 1,680 Climbing Kansas City Center
11:17AM 36.8558 -96.8769 29° Northeast 481 554 34,800 960 Climbing Kansas City Center
11:18AM 36.9678 -96.7961 30° Northeast 472 543 35,000 60 Climbing Kansas City Center
11:19AM 37.0919 -96.7042 31° Northeast 475 547 35,000  Level Kansas City Center
11:20AM 37.1981 -96.6272 30° Northeast 479 551 35,000  Level Kansas City Center
11:21AM 37.3144 -96.5419 30° Northeast 481 554 35,000 -360 Level Kansas City Center
11:22AM 37.4533 -96.4383 31° Northeast 485 558 34,300 -780 Descending Kansas City Center
11:23AM 37.5586 -96.3608 30° Northeast 483 556 33,400 -1,020 Descending Kansas City Center
11:24AM 37.6853 -96.2683 30° Northeast 484 557 32,300 -1,020 Descending Kansas City Center
11:25AM 37.7994 -96.1836 30° Northeast 479 551 31,400 -960 Descending Kansas City Center
11:26AM 37.9317 -96.0850 30° Northeast 474 545 30,300 -1,080 Descending Kansas City Center
11:27AM 38.0483 -95.9978 30° Northeast 480 552 29,300 -1,800 Descending Kansas City Center
11:28AM 38.1569 -95.9158 31° Northeast 476 548 26,700 -2,760 Descending Kansas City Center
11:29AM 38.2811 -95.8222 31° Northeast 465 535 23,700 -2,700 Descending Kansas City Center
11:30AM 38.3836 -95.7450 31° Northeast 451 519 21,200 -2,700 Descending Kansas City Center
11:31AM 38.4986 -95.6561 31° Northeast 435 501 18,200 -2,580 Descending Kansas City Center
11:33AM 38.5953 -95.5839 30° Northeast 422 486 15,900 -2,100 Descending Kansas City Center
11:34AM 38.6872 -95.5119 31° Northeast 407 468 13,800 -1,920 Descending Kansas City Center
11:35AM 38.7894 -95.4328 31° Northeast 386 444 12,000 -1,500 Descending Kansas City Center
11:36AM 38.8536 -95.3447 47° Northeast 353 406 10,800 -1,320 Descending Kansas City Center
11:37AM 38.9158 -95.2442 51° Northeast 323 372 9,300 -1,440 Descending Kansas City Center
11:38AM 38.9669 -95.1619 51° Northeast 312 359 7,800 -1,500 Descending Kansas City Center
11:39AM 39.0242 -95.0672 52° Northeast 302 348 6,300 -1,020 Descending Kansas City Center
11:40AM 39.0672 -94.9958 52° Northeast 266 306 5,800 -900 Descending Kansas City Center
11:41AM 39.1114 -94.9233 52° Northeast 233 268 4,500 -1,080 Descending Kansas City Center
11:42AM 39.1478 -94.8636 52° Northeast 224 258 3,600 -780 Descending Kansas City Center
11:43AM 39.1844 -94.8031 52° Northeast 191 220 3,000 -600 Descending Kansas City Center
11:44AM 39.2114 -94.7589 52° Northeast 169 194 2,400 -540 Descending Kansas City Center
11:45AM 39.2542 -94.7425 17° North 146 168 1,900 -600 Descending Kansas City Center
11:46AM 39.2872 -94.7308 15° North 130 150 1,200 -720 Descending Kansas City Center
11:48AM 39.2976 -94.7139 67° East  Level Estimated